Rubonia, Florida
Current Conditions -  °F | °C
As of 4:37 AM on Monday 24 Nov 2014 (Local Time) from KSRQ Reporting Station
Haze Haze  
Wind Chill: 73°   Ceiling: 200
Heat Index: 73°   Visibility: 0.75mi
Dew Point: 73°   Wind: 14mph
Humidity: 100%   Direction: 190°S
Pressure: 29.91"   Gusts: NA
Location:  27.5834°N, 82.5347°W
Report Text: KSRQ 240937Z 19012KT 3/4SM BR VV002 23/23 A2991 RMK AO2 T02280228
Loading
Personal Weather Stations






























Interactive Weather Map New forecast layout! Learn more

10-Day Weather Forecast

Advertisements
Track Severe Weather on mobile